Time;durP1;ratioP1;P1;durP2;ratioP2;P2;SDS_P1;SDS_P2;PMS_P1;PMS_P2;Temp;Humidity;BMP_temperature;BMP_pressure;BME280_temperature;BME280_humidity;BME280_pressure;Samples;Min_cycle;Max_cycle;Signal;HPM_P1;HPM_P2
2023/03/30 00:01:48;;;;;;;;;;;;;;;14.38;49.50;101456.28;5040294;28;19921;-80
2023/03/30 00:04:37;;;;;;;;;;;;;;;14.42;49.33;101460.81;5042008;28;20586;-82
2023/03/30 00:07:29;;;;;;;;;;;;;;;14.52;48.93;101455.00;5041845;28;19917;-81
2023/03/30 00:10:19;;;;;;;;;;;;;;;14.47;49.21;101452.44;5041394;28;19917;-81
2023/03/30 00:13:13;;;;;;;;;;;;;;;14.46;49.26;101467.22;5033299;28;19917;-79
2023/03/30 00:16:05;;;;;;;;;;;;;;;14.49;49.14;101447.41;5038927;28;19921;-78
2023/03/30 00:18:57;;;;;;;;;;;;;;;14.35;49.80;101452.22;5031635;28;19917;-80
2023/03/30 00:21:49;;;;;;;;;;;;;;;14.38;49.47;101440.66;5043889;28;19925;-80
2023/03/30 00:24:41;;;;;;;;;;;;;;;14.43;49.75;101445.16;5043320;28;20380;-81
2023/03/30 00:27:33;;;;;;;;;;;;;;;14.49;49.33;101436.47;5040693;28;19917;-81
2023/03/30 00:30:25;;;;;;;;;;;;;;;14.40;49.77;101440.34;5044422;28;19917;-80
2023/03/30 00:33:15;;;;;;;;;;;;;;;14.37;50.05;101441.81;5042929;28;19917;-81
2023/03/30 00:36:07;;;;;;;;;;;;;;;14.39;49.94;101430.53;5074771;22;19925;-84
2023/03/30 00:38:59;;;;;;;;;;;;;;;14.32;50.09;101432.94;5071200;28;19921;-81
2023/03/30 00:41:51;;;;;;;;;;;;;;;14.39;49.75;101439.53;5055225;28;19917;-82
2023/03/30 00:44:59;;;;;;;;;;;;;;;14.34;50.35;101428.72;5055780;28;19920;-81
2023/03/30 00:47:53;;;;;;;;;;;;;;;14.24;50.62;101433.72;5057400;28;20387;-80
2023/03/30 00:50:47;;;;;;;;;;;;;;;14.26;50.88;101428.75;5055549;28;19917;-84
2023/03/30 00:53:41;;;;;;;;;;;;;;;14.26;50.79;101426.81;5056140;28;19917;-83
2023/03/30 00:56:34;;;;;;;;;;;;;;;14.23;51.12;101419.22;5061334;28;19920;-83
2023/03/30 00:59:23;;;;;;;;;;;;;;;14.08;51.61;101422.44;5053192;28;20556;-84
2023/03/30 01:02:15;;;;;;;;;;;;;;;14.15;51.46;101431.00;5070297;28;19916;-84
2023/03/30 01:05:07;;;;;;;;;;;;;;;14.10;52.09;101431.16;5051078;28;19917;-84
2023/03/30 01:07:59;;;;;;;;;;;;;;;14.02;52.05;101418.25;5060839;28;19917;-81
2023/03/30 01:10:49;;;;;;;;;;;;;;;14.01;52.18;101425.69;5039987;28;19917;-84
2023/03/30 01:13:43;;;;;;;;;;;;;;;14.03;52.10;101420.69;5056315;28;19917;-84
2023/03/30 01:16:35;;;;;;;;;;;;;;;14.05;52.07;101417.63;5059462;28;19921;-82
2023/03/30 01:19:40;;;;;;;;;;;;;;;14.08;51.72;101411.50;5055863;28;19917;-83
2023/03/30 01:22:54;;;;;;;;;;;;;;;13.90;52.51;101415.38;5058226;28;19921;-81
2023/03/30 01:25:46;;;;;;;;;;;;;;;13.97;52.23;101404.75;5070167;28;19917;-85
2023/03/30 01:28:40;;;;;;;;;;;;;;;13.94;52.36;101402.66;5059832;28;19921;-83
2023/03/30 01:31:39;;;;;;;;;;;;;;;13.97;52.56;101411.03;5054570;28;19925;-84
2023/03/30 01:34:50;;;;;;;;;;;;;;;14.00;52.27;101404.13;5054289;28;19917;-81
2023/03/30 01:37:43;;;;;;;;;;;;;;;13.96;52.87;101403.97;5054870;28;19917;-83
2023/03/30 01:40:51;;;;;;;;;;;;;;;13.91;52.88;101400.59;5053932;28;19917;-83
2023/03/30 01:43:47;;;;;;;;;;;;;;;13.90;52.97;101404.44;5047178;28;19921;-82
2023/03/30 01:46:46;;;;;;;;;;;;;;;13.96;52.67;101403.97;5047548;28;19917;-82
2023/03/30 01:49:41;;;;;;;;;;;;;;;13.88;53.33;101406.66;5053913;28;19917;-83
2023/03/30 01:52:37;;;;;;;;;;;;;;;13.92;53.20;101407.63;5053892;28;19921;-84
2023/03/30 01:55:32;;;;;;;;;;;;;;;13.91;53.24;101400.59;5053894;28;19921;-83
2023/03/30 01:58:31;;;;;;;;;;;;;;;13.85;53.14;101396.38;5054274;28;19924;-80
2023/03/30 02:01:19;;;;;;;;;;;;;;;13.70;53.51;101395.72;5046001;28;19916;-82
2023/03/30 02:04:13;;;;;;;;;;;;;;;13.68;53.39;101389.78;5046314;28;19917;-82
2023/03/30 02:07:08;;;;;;;;;;;;;;;13.49;54.04;101400.19;5034101;28;19917;-82
2023/03/30 02:10:01;;;;;;;;;;;;;;;13.48;54.23;101404.03;5037137;28;20395;-81
2023/03/30 02:12:51;;;;;;;;;;;;;;;13.36;54.48;101395.63;5040359;28;20308;-83
2023/03/30 02:15:44;;;;;;;;;;;;;;;13.44;54.44;101394.88;5043346;28;19925;-82
2023/03/30 02:18:37;;;;;;;;;;;;;;;13.44;54.60;101391.31;5038301;28;19918;-82
2023/03/30 02:21:30;;;;;;;;;;;;;;;13.32;55.23;101391.94;5036046;28;19917;-81
2023/03/30 02:24:23;;;;;;;;;;;;;;;13.29;55.09;101378.91;5041713;28;19917;-82
2023/03/30 02:27:15;;;;;;;;;;;;;;;13.26;55.51;101393.19;5053370;28;20303;-82
2023/03/30 02:30:07;;;;;;;;;;;;;;;13.21;55.85;101398.81;5054768;28;19917;-81
2023/03/30 02:32:59;;;;;;;;;;;;;;;13.17;55.41;101400.56;5053391;28;19917;-81
2023/03/30 02:35:52;;;;;;;;;;;;;;;13.15;55.76;101389.16;5053386;28;19921;-80
2023/03/30 02:38:56;;;;;;;;;;;;;;;13.17;55.78;101381.44;5042780;28;19917;-80
2023/03/30 02:41:58;;;;;;;;;;;;;;;13.21;55.75;101393.34;5034291;28;19917;-81
2023/03/30 02:45:06;;;;;;;;;;;;;;;13.14;55.44;101387.53;5039516;28;19920;-82
2023/03/30 02:48:04;;;;;;;;;;;;;;;13.08;56.02;101386.03;5052902;28;19917;-85
2023/03/30 02:51:10;;;;;;;;;;;;;;;13.23;55.28;101385.66;5065299;28;19916;-83
2023/03/30 02:54:47;;;;;;;;;;;;;;;13.12;55.68;101385.13;5047252;28;19917;-84
2023/03/30 02:57:47;;;;;;;;;;;;;;;13.13;55.57;101385.94;5048032;28;19921;-84
2023/03/30 03:01:15;;;;;;;;;;;;;;;13.19;55.53;101384.66;5048286;28;20300;-81
2023/03/30 03:04:16;;;;;;;;;;;;;;;13.20;54.98;101375.38;5054599;28;19917;-83
2023/03/30 03:07:28;;;;;;;;;;;;;;;13.13;55.90;101381.28;5052332;28;20384;-82
2023/03/30 03:10:20;;;;;;;;;;;;;;;13.15;56.14;101379.03;5051161;28;20380;-82
2023/03/30 03:13:13;;;;;;;;;;;;;;;13.26;55.85;101383.06;5041372;28;19917;-82
2023/03/30 03:16:10;;;;;;;;;;;;;;;13.29;55.62;101373.47;5035482;28;19921;-82
2023/03/30 03:19:03;;;;;;;;;;;;;;;13.25;55.69;101377.94;5048258;28;19948;-82
2023/03/30 03:21:55;;;;;;;;;;;;;;;13.26;56.03;101371.34;5049352;28;19916;-82
2023/03/30 03:24:47;;;;;;;;;;;;;;;13.32;55.56;101361.06;5039277;28;19917;-81
2023/03/30 03:28:00;;;;;;;;;;;;;;;13.19;55.27;101363.63;5042890;28;19917;-81
2023/03/30 03:30:55;;;;;;;;;;;;;;;13.10;55.18;101362.78;5045826;28;19921;-83
2023/03/30 03:33:48;;;;;;;;;;;;;;;13.03;55.99;101367.06;5050706;28;20307;-83
2023/03/30 03:36:44;;;;;;;;;;;;;;;13.11;55.89;101369.00;5053323;28;19929;-82
2023/03/30 03:39:36;;;;;;;;;;;;;;;13.12;55.90;101370.66;5050270;28;19917;-81
2023/03/30 03:42:34;;;;;;;;;;;;;;;13.02;56.56;101376.38;5054289;28;19917;-82
2023/03/30 03:45:33;;;;;;;;;;;;;;;13.04;56.43;101371.41;5067946;28;19917;-81
2023/03/30 03:48:25;;;;;;;;;;;;;;;12.96;56.87;101370.25;5063991;28;19917;-82
2023/03/30 03:51:17;;;;;;;;;;;;;;;12.81;57.39;101368.75;5043160;28;20380;-81
2023/03/30 03:54:09;;;;;;;;;;;;;;;12.72;57.52;101375.28;5042527;28;20380;-83
2023/03/30 03:57:00;;;;;;;;;;;;;;;12.60;57.87;101381.31;5038674;28;19921;-81
2023/03/30 03:59:55;;;;;;;;;;;;;;;12.56;58.18;101383.03;5034189;28;19917;-81
2023/03/30 04:02:45;;;;;;;;;;;;;;;12.58;58.06;101380.81;5045392;28;19917;-84
2023/03/30 04:05:36;;;;;;;;;;;;;;;12.61;57.46;101369.28;5049121;28;19917;-82
2023/03/30 04:08:28;;;;;;;;;;;;;;;12.67;57.28;101368.03;5048893;28;19917;-85
2023/03/30 04:11:23;;;;;;;;;;;;;;;12.74;57.32;101373.84;5062831;28;19921;-83
2023/03/30 04:14:48;;;;;;;;;;;;;;;12.67;57.74;101378.94;5044592;28;20296;-85
2023/03/30 04:18:04;;;;;;;;;;;;;;;12.65;57.22;101367.53;5057974;28;19916;-84
2023/03/30 04:21:11;;;;;;;;;;;;;;;12.56;57.56;101372.13;5071655;28;19916;-83
2023/03/30 04:24:30;;;;;;;;;;;;;;;12.49;58.44;101363.59;5054233;28;19917;-84
2023/03/30 04:27:41;;;;;;;;;;;;;;;12.52;58.33;101354.78;5051065;28;19916;-82
2023/03/30 04:30:52;;;;;;;;;;;;;;;12.55;57.99;101347.88;5051272;28;19918;-82
2023/03/30 04:34:01;;;;;;;;;;;;;;;12.60;58.15;101351.28;5039826;28;19918;-82
2023/03/30 04:37:17;;;;;;;;;;;;;;;12.67;57.73;101359.84;5046803;28;19921;-83
2023/03/30 04:40:16;;;;;;;;;;;;;;;12.70;57.63;101355.66;5052223;28;19920;-82
2023/03/30 04:43:23;;;;;;;;;;;;;;;12.72;58.12;101348.00;5052707;28;19916;-82
2023/03/30 04:46:31;;;;;;;;;;;;;;;12.74;57.68;101352.03;5035879;28;19917;-80
2023/03/30 04:49:47;;;;;;;;;;;;;;;12.82;57.57;101348.53;5031163;28;19917;-80
2023/03/30 04:53:09;;;;;;;;;;;;;;;12.66;58.22;101347.31;5043571;28;20372;-80
2023/03/30 04:56:23;;;;;;;;;;;;;;;12.71;57.72;101338.19;5050004;28;19920;-81
2023/03/30 04:59:38;;;;;;;;;;;;;;;12.69;58.02;101337.72;5037740;28;19917;-81
2023/03/30 05:02:50;;;;;;;;;;;;;;;12.72;57.89;101342.53;5035901;28;20380;-84
2023/03/30 05:06:05;;;;;;;;;;;;;;;12.75;57.32;101339.16;5045868;28;19917;-83
2023/03/30 05:09:10;;;;;;;;;;;;;;;12.77;58.00;101350.56;5045600;28;19921;-84
2023/03/30 05:12:20;;;;;;;;;;;;;;;12.77;58.16;101353.31;5053839;28;19917;-84
2023/03/30 05:15:15;;;;;;;;;;;;;;;12.74;58.32;101345.75;5044807;28;19921;-83
2023/03/30 05:18:25;;;;;;;;;;;;;;;12.72;58.56;101346.06;5040213;28;19917;-82
2023/03/30 05:21:51;;;;;;;;;;;;;;;12.76;58.69;101348.97;4999305;28;19918;-83
2023/03/30 05:24:56;;;;;;;;;;;;;;;12.74;58.82;101356.69;4990090;28;19918;-80
2023/03/30 05:28:25;;;;;;;;;;;;;;;12.09;60.84;101354.50;5039850;28;19917;-77
2023/03/30 05:31:34;;;;;;;;;;;;;;;11.64;63.37;101347.34;5036208;28;19917;-77
2023/03/30 05:34:42;;;;;;;;;;;;;;;11.75;62.50;101355.03;5048765;28;19917;-78
2023/03/30 05:37:54;;;;;;;;;;;;;;;11.61;62.64;101356.94;5041326;28;19922;-78
2023/03/30 05:40:50;;;;;;;;;;;;;;;11.40;63.73;101361.22;5058316;28;19917;-78
2023/03/30 05:44:06;;;;;;;;;;;;;;;11.17;65.20;101356.81;5050402;28;19918;-78
2023/03/30 05:47:27;;;;;;;;;;;;;;;11.82;63.18;101351.88;5048827;28;19917;-77
2023/03/30 05:50:35;;;;;;;;;;;;;;;12.18;64.20;101346.41;5058853;28;19917;-81
2023/03/30 05:53:25;;;;;;;;;;;;;;;12.29;61.50;101347.75;5063451;28;19917;-82
2023/03/30 05:56:35;;;;;;;;;;;;;;;12.43;61.23;101357.47;5054289;28;20319;-80
2023/03/30 05:59:39;;;;;;;;;;;;;;;12.51;60.81;101368.72;5061687;28;19917;-79
2023/03/30 06:02:57;;;;;;;;;;;;;;;12.63;60.24;101371.69;5039597;28;19917;-80
2023/03/30 06:05:49;;;;;;;;;;;;;;;12.74;59.74;101376.59;5053678;28;20308;-79
2023/03/30 06:08:41;;;;;;;;;;;;;;;12.76;60.00;101377.06;5055782;28;20315;-79
2023/03/30 06:11:34;;;;;;;;;;;;;;;12.78;60.42;101377.56;5053417;28;19921;-78
2023/03/30 06:14:39;;;;;;;;;;;;;;;12.81;60.13;101379.66;5069718;28;19917;-79
2023/03/30 06:17:45;;;;;;;;;;;;;;;12.81;60.21;101385.13;5051372;28;19921;-78
2023/03/30 06:20:36;;;;;;;;;;;;;;;12.88;60.24;101386.59;5047854;28;20304;-78
2023/03/30 06:23:28;;;;;;;;;;;;;;;12.88;60.73;101406.50;5068904;28;19917;-78
2023/03/30 06:26:22;;;;;;;;;;;;;;;13.01;60.44;101402.88;5054769;28;19917;-78
2023/03/30 06:29:14;;;;;;;;;;;;;;;13.00;60.25;101401.28;5064404;28;19921;-78
2023/03/30 06:32:06;;;;;;;;;;;;;;;13.01;59.99;101400.13;5034126;28;19917;-77
2023/03/30 06:35:17;;;;;;;;;;;;;;;13.00;60.07;101411.41;5077217;22;19924;-83
2023/03/30 06:38:09;;;;;;;;;;;;;;;13.14;59.09;101412.13;5105677;28;19921;-81
2023/03/30 06:41:04;;;;;;;;;;;;;;;13.44;58.72;101416.72;5088419;28;19916;-80
2023/03/30 06:43:56;;;;;;;;;;;;;;;13.74;57.66;101406.81;5079183;28;19916;-81
2023/03/30 06:46:50;;;;;;;;;;;;;;;13.97;57.19;101410.22;5063014;28;19921;-81
2023/03/30 06:49:40;;;;;;;;;;;;;;;14.22;56.49;101409.41;5066534;28;19917;-82
2023/03/30 06:52:52;;;;;;;;;;;;;;;14.36;55.36;101401.88;5057319;28;19917;-80
2023/03/30 06:55:40;;;;;;;;;;;;;;;14.37;55.05;101411.72;5063976;28;19921;-83
2023/03/30 06:58:32;;;;;;;;;;;;;;;14.44;54.81;101414.75;5064090;28;19917;-82
2023/03/30 07:01:24;;;;;;;;;;;;;;;14.42;54.76;101421.69;5062640;28;19916;-82
2023/03/30 07:04:25;;;;;;;;;;;;;;;14.23;55.31;101423.91;5062813;28;19920;-81
2023/03/30 07:07:38;;;;;;;;;;;;;;;14.20;56.30;101419.09;5062059;28;19921;-81
2023/03/30 07:10:26;;;;;;;;;;;;;;;14.19;56.19;101420.19;5075229;28;19929;-81
2023/03/30 07:13:18;;;;;;;;;;;;;;;14.12;55.88;101421.47;5059653;28;19916;-81
2023/03/30 07:16:10;;;;;;;;;;;;;;;14.26;55.84;101418.59;5056065;28;19921;-82
2023/03/30 07:19:03;;;;;;;;;;;;;;;13.94;56.11;101421.81;5060702;28;19917;-81
2023/03/30 07:21:55;;;;;;;;;;;;;;;13.83;56.36;101420.50;5068431;28;19917;-81
2023/03/30 07:24:48;;;;;;;;;;;;;;;13.82;56.74;101429.81;5065159;28;19916;-81
2023/03/30 07:27:40;;;;;;;;;;;;;;;13.72;56.87;101422.72;5069291;28;20303;-81
2023/03/30 07:30:32;;;;;;;;;;;;;;;13.75;57.06;101427.56;5068743;28;19917;-81
2023/03/30 07:33:28;;;;;;;;;;;;;;;13.71;57.55;101418.41;5078574;28;19917;-81
2023/03/30 07:36:20;;;;;;;;;;;;;;;13.63;57.91;101417.25;5059741;28;20380;-81
2023/03/30 07:39:12;;;;;;;;;;;;;;;13.53;58.01;101425.75;5059816;28;19917;-81
2023/03/30 07:42:02;;;;;;;;;;;;;;;13.66;57.41;101416.59;5072444;28;19917;-81
2023/03/30 07:44:54;;;;;;;;;;;;;;;13.56;58.02;101416.91;5062556;28;19917;-82
2023/03/30 07:47:46;;;;;;;;;;;;;;;13.52;58.13;101426.88;5093956;28;20383;-81
2023/03/30 07:50:36;;;;;;;;;;;;;;;13.55;58.25;101425.44;5062035;28;19917;-81
2023/03/30 07:53:26;;;;;;;;;;;;;;;13.49;58.63;101426.69;5075299;28;19917;-82
2023/03/30 07:56:18;;;;;;;;;;;;;;;13.53;58.30;101427.66;5059899;28;19921;-81
2023/03/30 07:59:12;;;;;;;;;;;;;;;13.54;58.53;101416.44;5061206;28;19917;-81
2023/03/30 08:02:00;;;;;;;;;;;;;;;13.55;58.49;101426.25;5063786;28;19933;-81
2023/03/30 08:05:06;;;;;;;;;;;;;;;13.66;58.05;101427.53;5066981;28;20395;-81
2023/03/30 08:08:14;;;;;;;;;;;;;;;13.58;58.57;101431.06;5070836;28;19917;-81
2023/03/30 08:11:07;;;;;;;;;;;;;;;13.65;58.25;101423.22;5061151;28;19916;-81
2023/03/30 08:13:59;;;;;;;;;;;;;;;13.57;58.81;101434.91;5055487;28;19917;-81
2023/03/30 08:16:51;;;;;;;;;;;;;;;13.70;58.03;101425.81;5062398;28;19929;-81
2023/03/30 08:19:40;;;;;;;;;;;;;;;13.66;58.41;101426.75;5066894;28;19916;-82
2023/03/30 08:22:32;;;;;;;;;;;;;;;13.73;57.95;101431.72;5063867;28;19916;-81
2023/03/30 08:25:25;;;;;;;;;;;;;;;13.75;57.60;101429.50;5069695;28;19946;-81
2023/03/30 08:28:17;;;;;;;;;;;;;;;13.77;57.46;101421.75;5091634;28;19916;-81
2023/03/30 08:31:09;;;;;;;;;;;;;;;13.80;57.19;101432.09;5056284;28;19917;-81
2023/03/30 08:34:01;;;;;;;;;;;;;;;13.84;56.65;101424.84;5063898;28;19917;-81
2023/03/30 08:36:53;;;;;;;;;;;;;;;13.81;56.64;101437.25;5065024;28;19920;-81
2023/03/30 08:39:45;;;;;;;;;;;;;;;13.87;56.53;101433.19;5050933;28;19917;-81
2023/03/30 08:42:57;;;;;;;;;;;;;;;13.83;56.66;101440.44;5078939;28;19917;-81
2023/03/30 08:45:49;;;;;;;;;;;;;;;13.92;56.56;101437.72;5063723;28;20319;-81
2023/03/30 08:48:41;;;;;;;;;;;;;;;13.85;57.04;101426.47;5064987;28;19917;-81
2023/03/30 08:51:34;;;;;;;;;;;;;;;13.83;57.36;101425.97;5071573;28;19917;-81
2023/03/30 08:54:27;;;;;;;;;;;;;;;13.92;57.26;101434.97;5078760;28;19916;-81
2023/03/30 08:57:25;;;;;;;;;;;;;;;13.99;56.83;101441.59;5058881;28;19928;-82
2023/03/30 09:00:28;;;;;;;;;;;;;;;13.96;56.98;101435.97;5042762;28;19921;-81
2023/03/30 09:03:24;;;;;;;;;;;;;;;13.96;56.80;101435.97;5042443;28;19917;-81
2023/03/30 09:06:25;;;;;;;;;;;;;;;13.96;57.23;101441.44;5042160;28;19916;-81
2023/03/30 09:09:17;;;;;;;;;;;;;;;14.16;56.51;101440.81;5054442;28;20548;-81
2023/03/30 09:12:09;;;;;;;;;;;;;;;14.08;57.08;101439.66;5073259;28;19917;-81
2023/03/30 09:15:01;;;;;;;;;;;;;;;14.14;57.20;101445.78;5063327;28;19916;-81
2023/03/30 09:18:04;;;;;;;;;;;;;;;14.16;57.09;101438.06;5066131;28;19921;-81
2023/03/30 09:20:57;;;;;;;;;;;;;;;14.22;56.73;101442.22;5062137;28;19942;-81
2023/03/30 09:23:49;;;;;;;;;;;;;;;14.20;56.60;101443.69;5055719;28;19917;-81
2023/03/30 09:26:44;;;;;;;;;;;;;;;14.27;56.63;101449.50;5063872;28;19917;-81
2023/03/30 09:29:40;;;;;;;;;;;;;;;14.24;56.17;101456.41;5063360;28;19916;-81
2023/03/30 09:32:38;;;;;;;;;;;;;;;14.29;56.03;101453.50;5063890;28;19917;-81
2023/03/30 09:35:35;;;;;;;;;;;;;;;14.25;56.15;101449.81;5065638;28;19917;-81
2023/03/30 09:38:27;;;;;;;;;;;;;;;14.17;56.75;101442.41;5069667;28;19925;-81
2023/03/30 09:41:39;;;;;;;;;;;;;;;14.18;56.48;101446.75;5042483;28;19918;-81
2023/03/30 09:44:35;;;;;;;;;;;;;;;14.18;56.37;101443.19;5055113;28;19917;-81
2023/03/30 09:47:28;;;;;;;;;;;;;;;14.30;55.78;101438.72;5057499;28;19921;-82
2023/03/30 09:50:22;;;;;;;;;;;;;;;14.32;55.81;101431.00;5083500;28;19916;-82
2023/03/30 09:53:25;;;;;;;;;;;;;;;14.30;56.10;101429.69;5072996;28;20338;-82
2023/03/30 09:56:32;;;;;;;;;;;;;;;14.42;55.37;101425.22;5067895;28;19920;-83
2023/03/30 09:59:39;;;;;;;;;;;;;;;14.31;56.07;101423.09;5061755;28;19916;-83
2023/03/30 10:02:31;;;;;;;;;;;;;;;14.40;55.50;101413.78;5059208;28;19917;-82
2023/03/30 10:05:23;;;;;;;;;;;;;;;14.31;56.00;101415.69;5063930;28;19916;-81
2023/03/30 10:08:24;;;;;;;;;;;;;;;14.36;56.17;101417.47;5059639;28;19925;-81
2023/03/30 10:11:20;;;;;;;;;;;;;;;14.50;55.34;101418.94;5059403;28;19917;-80
2023/03/30 10:14:19;;;;;;;;;;;;;;;14.15;56.22;101409.09;5067293;28;19916;-81
2023/03/30 10:17:19;;;;;;;;;;;;;;;14.02;56.70;101408.13;5059202;28;19921;-81
2023/03/30 10:20:16;;;;;;;;;;;;;;;14.16;56.54;101413.47;5059382;28;20404;-81
2023/03/30 10:23:13;;;;;;;;;;;;;;;14.27;56.71;101409.28;5065994;28;19916;-81
2023/03/30 10:26:05;;;;;;;;;;;;;;;14.29;56.53;101409.75;5059381;28;19917;-81
2023/03/30 10:29:00;;;;;;;;;;;;;;;14.26;56.24;101404.13;5058672;28;19921;-81
2023/03/30 10:31:52;;;;;;;;;;;;;;;14.36;56.48;101404.63;5057878;28;19916;-81
2023/03/30 10:34:43;;;;;;;;;;;;;;;14.35;56.52;101405.72;5063758;28;19917;-81
2023/03/30 10:37:35;;;;;;;;;;;;;;;14.27;56.27;101386.59;5063865;28;19920;-83
2023/03/30 10:40:37;;;;;;;;;;;;;;;14.23;57.39;101372.72;5061972;28;19917;-81
2023/03/30 10:43:28;;;;;;;;;;;;;;;14.28;56.95;101379.97;5068635;28;19917;-81
2023/03/30 10:46:21;;;;;;;;;;;;;;;14.40;55.63;101378.22;5057562;28;19924;-81
2023/03/30 10:49:39;;;;;;;;;;;;;;;14.36;55.96;101362.75;5058738;28;19917;-81
2023/03/30 10:52:38;;;;;;;;;;;;;;;14.36;55.87;101366.31;5058232;28;19917;-81
2023/03/30 10:55:48;;;;;;;;;;;;;;;14.44;55.58;101364.69;5072867;28;20403;-80
2023/03/30 10:58:52;;;;;;;;;;;;;;;14.42;55.93;101356.81;5058161;28;19921;-80
2023/03/30 11:01:51;;;;;;;;;;;;;;;14.44;55.83;101354.53;5058086;28;19917;-80
2023/03/30 11:04:46;;;;;;;;;;;;;;;14.43;56.05;101357.59;5057733;28;19921;-80
2023/03/30 11:07:52;;;;;;;;;;;;;;;14.49;55.61;101342.63;5057719;28;19916;-81
2023/03/30 11:10:51;;;;;;;;;;;;;;;14.45;55.21;101337.00;5057653;28;19917;-80
2023/03/30 11:13:49;;;;;;;;;;;;;;;14.55;55.11;101336.66;5062255;28;20294;-80
2023/03/30 11:16:50;;;;;;;;;;;;;;;14.55;55.55;101338.59;5067265;28;20311;-80
2023/03/30 11:20:00;;;;;;;;;;;;;;;14.52;55.58;101348.25;5064801;28;19916;-80
2023/03/30 11:22:56;;;;;;;;;;;;;;;14.67;54.88;101351.59;5058049;28;19917;-80
2023/03/30 11:25:59;;;;;;;;;;;;;;;14.79;54.35;101360.72;5057346;28;19920;-80
2023/03/30 11:28:56;;;;;;;;;;;;;;;14.71;54.18;101360.75;5047873;28;19920;-80
2023/03/30 11:31:49;;;;;;;;;;;;;;;14.71;54.91;101352.53;5057184;28;19917;-80
2023/03/30 11:34:57;;;;;;;;;;;;;;;14.74;54.86;101341.72;5063539;28;19917;-80
2023/03/30 11:38:02;;;;;;;;;;;;;;;14.73;53.84;101342.84;5070729;28;19929;-80
2023/03/30 11:40:54;;;;;;;;;;;;;;;14.81;53.80;101338.50;5067995;28;19917;-80
2023/03/30 11:43:46;;;;;;;;;;;;;;;14.82;54.15;101337.38;5075209;28;19917;-80
2023/03/30 11:46:45;;;;;;;;;;;;;;;14.83;53.96;101322.56;5057051;28;19916;-80
2023/03/30 11:49:42;;;;;;;;;;;;;;;14.86;53.41;101319.16;5058125;28;19917;-80
2023/03/30 11:52:50;;;;;;;;;;;;;;;14.98;53.75;101324.75;5040091;28;20373;-80
2023/03/30 11:55:43;;;;;;;;;;;;;;;15.09;53.59;101315.00;5059088;28;19917;-80
2023/03/30 11:58:43;;;;;;;;;;;;;;;15.08;53.20;101315.34;5068194;28;19920;-80
2023/03/30 12:01:51;;;;;;;;;;;;;;;15.21;52.92;101317.84;5064441;28;20376;-80
2023/03/30 12:04:58;;;;;;;;;;;;;;;15.29;52.59;101319.69;5063624;28;19921;-80
2023/03/30 12:07:50;;;;;;;;;;;;;;;15.32;52.15;101304.56;5058358;28;19917;-80
2023/03/30 12:10:41;;;;;;;;;;;;;;;15.27;52.37;101305.56;5055716;28;20412;-80
2023/03/30 12:13:32;;;;;;;;;;;;;;;15.32;52.17;101299.88;5056796;28;19917;-80
2023/03/30 12:16:25;;;;;;;;;;;;;;;15.40;52.33;101293.53;5070147;28;19916;-81
2023/03/30 12:19:23;;;;;;;;;;;;;;;15.49;51.83;101281.72;5068749;28;19921;-80
2023/03/30 12:22:22;;;;;;;;;;;;;;;15.57;51.96;101280.84;5063534;28;19916;-82
2023/03/30 12:25:24;;;;;;;;;;;;;;;15.68;52.22;101279.31;5061147;28;19917;-81
2023/03/30 12:28:19;;;;;;;;;;;;;;;15.73;51.55;101273.63;5059234;28;19917;-81
2023/03/30 12:31:11;;;;;;;;;;;;;;;15.75;51.69;101272.13;5061385;28;19917;-81
2023/03/30 12:34:09;;;;;;;;;;;;;;;15.80;51.63;101271.13;5044341;28;19917;-81
2023/03/30 12:37:03;;;;;;;;;;;;;;;15.96;51.32;101269.38;5117778;22;19925;-79
2023/03/30 12:40:11;;;;;;;;;;;;;;;16.02;51.41;101259.78;5073647;28;19920;-80
2023/03/30 12:43:12;;;;;;;;;;;;;;;16.05;51.36;101247.34;5046538;28;20378;-80
2023/03/30 12:46:24;;;;;;;;;;;;;;;16.14;51.44;101251.59;5045548;28;19921;-81
2023/03/30 12:49:31;;;;;;;;;;;;;;;16.04;51.73;101249.28;5057379;28;19916;-80
2023/03/30 12:52:32;;;;;;;;;;;;;;;16.15;51.67;101247.69;5046483;28;20388;-80
2023/03/30 12:55:30;;;;;;;;;;;;;;;16.37;51.31;101245.69;5057409;28;19917;-82
2023/03/30 12:58:29;;;;;;;;;;;;;;;16.49;50.73;101238.28;5042465;28;19921;-82
2023/03/30 13:01:21;;;;;;;;;;;;;;;16.61;51.05;101243.78;5038953;28;20375;-81
2023/03/30 13:04:23;;;;;;;;;;;;;;;16.64;50.53;101248.63;5040852;28;19917;-83
2023/03/30 13:07:33;;;;;;;;;;;;;;;16.63;50.41;101249.75;5038301;28;19917;-81
2023/03/30 13:10:36;;;;;;;;;;;;;;;16.64;50.52;101239.56;5039856;28;19917;-79
2023/03/30 13:13:45;;;;;;;;;;;;;;;16.75;50.32;101227.00;5025226;28;19917;-79
2023/03/30 13:16:50;;;;;;;;;;;;;;;16.82;49.91;101221.69;5034104;28;19921;-80
2023/03/30 13:19:47;;;;;;;;;;;;;;;16.78;50.40;101226.28;5035125;28;19917;-80
2023/03/30 13:22:38;;;;;;;;;;;;;;;16.83;50.54;101223.31;5035295;28;20387;-80
2023/03/30 13:25:41;;;;;;;;;;;;;;;17.17;49.25;101208.25;5022541;28;19917;-81
2023/03/30 13:28:51;;;;;;;;;;;;;;;17.29;49.40;101205.47;5054723;28;19917;-80
2023/03/30 13:32:04;;;;;;;;;;;;;;;17.41;48.97;101194.44;5053634;28;19917;-80
2023/03/30 13:34:59;;;;;;;;;;;;;;;17.45;48.89;101186.28;5056413;28;19917;-80
2023/03/30 13:37:54;;;;;;;;;;;;;;;17.95;47.62;101181.00;5040228;28;19924;-79
2023/03/30 13:40:51;;;;;;;;;;;;;;;17.75;47.46;101168.28;5044988;28;19917;-80
2023/03/30 13:43:46;;;;;;;;;;;;;;;17.70;47.72;101165.00;5038682;28;20395;-80
2023/03/30 13:46:45;;;;;;;;;;;;;;;18.08;47.34;101167.97;5039619;28;19917;-80
2023/03/30 13:49:35;;;;;;;;;;;;;;;18.17;47.29;101171.34;5034083;28;19917;-80
2023/03/30 13:52:30;;;;;;;;;;;;;;;18.35;46.74;101161.56;5054099;28;19916;-81
2023/03/30 13:55:29;;;;;;;;;;;;;;;18.37;46.78;101163.97;5043972;28;19916;-81
2023/03/30 13:58:31;;;;;;;;;;;;;;;18.15;46.78;101157.13;5053016;28;19921;-80
2023/03/30 14:01:21;;;;;;;;;;;;;;;18.03;47.46;101154.47;5051658;28;19916;-80
2023/03/30 14:04:14;;;;;;;;;;;;;;;18.01;47.65;101155.97;5041845;28;19916;-79
2023/03/30 14:07:12;;;;;;;;;;;;;;;18.12;47.12;101151.56;5021540;28;19917;-80
2023/03/30 14:10:07;;;;;;;;;;;;;;;18.14;46.88;101143.72;5034643;28;19942;-80
2023/03/30 14:12:59;;;;;;;;;;;;;;;18.10;46.78;101140.09;5030002;28;19921;-80
2023/03/30 14:15:51;;;;;;;;;;;;;;;18.07;47.43;101140.81;5039277;28;19917;-79
2023/03/30 14:18:41;;;;;;;;;;;;;;;18.14;46.81;101144.53;5026025;28;19929;-79
2023/03/30 14:21:30;;;;;;;;;;;;;;;18.10;46.88;101127.13;5038726;28;19917;-80
2023/03/30 14:24:27;;;;;;;;;;;;;;;18.03;47.31;101126.94;5026420;28;19917;-79
2023/03/30 14:27:19;;;;;;;;;;;;;;;18.07;46.81;101127.84;5033192;28;19925;-80
2023/03/30 14:30:28;;;;;;;;;;;;;;;18.08;47.05;101112.13;5046225;28;20303;-80
2023/03/30 14:33:17;;;;;;;;;;;;;;;18.00;47.10;101105.66;5025553;28;20404;-81
2023/03/30 14:36:10;;;;;;;;;;;;;;;17.96;47.41;101102.00;5027156;28;19921;-80
2023/03/30 14:39:03;;;;;;;;;;;;;;;17.87;47.59;101077.44;5030978;28;19922;-81
2023/03/30 14:41:55;;;;;;;;;;;;;;;17.80;47.93;101062.69;5030847;28;19921;-81
2023/03/30 14:44:48;;;;;;;;;;;;;;;17.60;48.20;101039.00;5026629;28;20381;-81
2023/03/30 14:47:40;;;;;;;;;;;;;;;17.62;48.69;101043.00;5040999;28;19921;-82
2023/03/30 14:50:30;;;;;;;;;;;;;;;17.54;48.39;101058.47;5044503;28;20323;-81
2023/03/30 14:53:29;;;;;;;;;;;;;;;17.60;48.76;101072.81;5041894;28;19916;-81
2023/03/30 14:56:22;;;;;;;;;;;;;;;17.69;48.34;101058.88;5028226;28;19917;-81
2023/03/30 14:59:14;;;;;;;;;;;;;;;17.78;48.36;101056.72;5023471;28;19921;-82
2023/03/30 15:02:04;;;;;;;;;;;;;;;17.83;48.32;101056.47;5029410;28;19917;-81
2023/03/30 15:04:56;;;;;;;;;;;;;;;17.86;48.11;101064.81;5020446;28;19917;-81
2023/03/30 15:07:48;;;;;;;;;;;;;;;17.99;48.12;101051.75;5015022;28;19921;-78
2023/03/30 15:10:42;;;;;;;;;;;;;;;18.00;47.89;101038.78;5039772;28;19921;-81
2023/03/30 15:13:37;;;;;;;;;;;;;;;17.95;48.02;101040.66;5039462;28;19917;-80